Time;durP1;ratioP1;P1;durP2;ratioP2;P2;SDS_P1;SDS_P2;PMS_P1;PMS_P2;Temp;Humidity;BMP_temperature;BMP_pressure;BME280_temperature;BME280_humidity;BME280_pressure;Samples;Min_cycle;Max_cycle;Signal;HPM_P1;HPM_P2
2021/08/27 00:01:44;;;;;;;33.63;29.98;;;;;;;21.39;97.23;99843.19;5052519;28;20078;-67
2021/08/27 00:04:09;;;;;;;31.80;28.50;;;;;;;21.68;97.03;99900.44;5070614;28;20021;-66
2021/08/27 00:06:35;;;;;;;33.00;29.70;;;;;;;21.71;97.78;99899.53;5070529;28;20153;-63
2021/08/27 00:09:00;;;;;;;32.97;29.40;;;;;;;21.74;97.28;99904.75;5070802;28;20025;-64
2021/08/27 00:11:26;;;;;;;33.08;29.60;;;;;;;21.78;97.40;99909.91;5070908;28;20475;-62
2021/08/27 00:13:52;;;;;;;33.40;29.90;;;;;;;21.75;97.43;99898.59;5066122;28;20449;-67
2021/08/27 00:16:18;;;;;;;32.13;28.92;;;;;;;21.63;98.13;99899.69;5053319;28;20049;-66
2021/08/27 00:18:43;;;;;;;34.00;30.67;;;;;;;21.23;99.13;99861.81;5062567;28;20025;-66
2021/08/27 00:21:09;;;;;;;34.47;31.08;;;;;;;21.42;100.00;99908.75;5070611;28;20013;-66
2021/08/27 00:23:35;;;;;;;35.15;31.85;;;;;;;21.20;99.94;99869.75;5070472;28;20029;-66
2021/08/27 00:26:00;;;;;;;34.95;31.45;;;;;;;21.47;99.67;99920.03;5070510;28;20059;-71
2021/08/27 00:28:26;;;;;;;35.42;32.03;;;;;;;21.24;100.00;99923.06;5070391;28;20060;-65
2021/08/27 00:30:51;;;;;;;36.92;33.45;;;;;;;20.98;100.00;99929.56;5070458;28;20036;-72
2021/08/27 00:33:17;;;;;;;37.10;33.47;;;;;;;20.81;100.00;99925.44;5070169;28;20099;-68
2021/08/27 00:35:42;;;;;;;38.67;34.90;;;;;;;20.64;100.00;99907.25;5070142;28;20021;-68
2021/08/27 00:38:14;;;;;;;40.22;36.17;;;;;;;20.81;100.00;99895.69;5070033;28;20017;-64
2021/08/27 00:40:40;;;;;;;40.88;36.47;;;;;;;20.89;100.00;99906.09;5062385;28;20087;-70
2021/08/27 00:43:05;;;;;;;42.88;38.50;;;;;;;20.74;100.00;99880.97;5070394;28;20036;-68
2021/08/27 00:45:31;;;;;;;41.10;36.95;;;;;;;20.73;100.00;99913.31;5070237;28;20024;-66
2021/08/27 00:47:56;;;;;;;43.95;39.63;;;;;;;20.69;100.00;99899.34;5070085;28;20036;-67
2021/08/27 00:50:22;;;;;;;42.50;38.40;;;;;;;20.68;100.00;99893.22;5070390;28;20605;-66
2021/08/27 00:52:47;;;;;;;43.40;38.50;;;;;;;20.80;100.00;99913.19;5045375;28;20029;-65
2021/08/27 00:55:13;;;;;;;46.83;41.90;;;;;;;20.85;100.00;99893.00;5072531;28;20036;-64
2021/08/27 00:57:38;;;;;;;46.65;41.60;;;;;;;21.01;100.00;99906.78;5074191;28;20032;-63
2021/08/27 01:00:05;;;;;;;49.13;43.88;;;;;;;20.99;100.00;99887.56;5073706;28;20052;-66
2021/08/27 01:02:30;;;;;;;49.38;44.05;;;;;;;21.07;100.00;99904.94;5073545;28;20036;-64
2021/08/27 01:04:57;;;;;;;50.65;45.15;;;;;;;20.99;100.00;99892.81;5073864;28;20082;-63
2021/08/27 01:07:30;;;;;;;50.40;44.90;;;;;;;20.90;100.00;99860.59;5074040;28;20067;-68
2021/08/27 01:10:19;;;;;;;50.53;44.05;;;;;;;21.19;100.00;99896.88;5065543;28;20025;-67
2021/08/27 01:13:10;;;;;;;50.45;45.05;;;;;;;21.25;100.00;99888.91;5070390;28;20439;-71
2021/08/27 01:16:03;;;;;;;47.13;42.05;;;;;;;21.24;100.00;99892.41;5073555;28;20039;-67
2021/08/27 01:18:31;;;;;;;47.38;42.22;;;;;;;21.24;100.00;99888.94;5055854;28;20097;-69
2021/08/27 01:20:59;;;;;;;46.33;41.60;;;;;;;21.28;100.00;99885.38;5073478;28;20482;-66
2021/08/27 01:23:40;;;;;;;46.22;41.15;;;;;;;21.00;100.00;99852.56;5070812;28;20792;-66
2021/08/27 01:26:07;;;;;;;47.65;42.55;;;;;;;21.28;100.00;99894.13;5054346;28;20032;-66
2021/08/27 01:28:39;;;;;;;47.65;42.65;;;;;;;21.31;100.00;99894.06;5071342;28;20127;-67
2021/08/27 01:31:41;;;;;;;49.30;43.97;;;;;;;21.26;100.00;99879.25;5070928;28;20449;-69
2021/08/27 01:34:28;;;;;;;49.55;44.00;;;;;;;21.37;100.00;99879.97;5070991;28;20028;-68
2021/08/27 01:36:56;;;;;;;46.97;42.35;;;;;;;21.52;99.72;99880.59;5070945;28;20131;-67
2021/08/27 01:39:25;;;;;;;44.53;39.92;;;;;;;21.66;98.43;99883.88;5071166;28;20036;-67
2021/08/27 01:41:52;;;;;;;;;;;;;;;21.56;98.09;99877.03;5071280;28;20032;-67
2021/08/27 01:44:21;;;;;;;44.45;39.97;;;;;;;21.53;98.77;99874.44;5070733;28;20007;-68
2021/08/27 01:46:46;;;;;;;46.97;42.08;;;;;;;21.53;99.03;99867.41;5070672;28;20058;-67
2021/08/27 01:49:13;;;;;;;44.40;39.80;;;;;;;21.57;98.59;99871.78;5070610;28;20112;-65
2021/08/27 01:51:40;;;;;;;43.63;39.30;;;;;;;21.56;98.51;99872.66;5070764;28;20036;-66
2021/08/27 01:54:07;;;;;;;43.60;39.25;;;;;;;21.39;99.19;99830.06;5071466;28;20137;-67
2021/08/27 01:56:36;;;;;;;45.17;40.60;;;;;;;21.50;100.00;99870.97;5072788;28;20071;-69
2021/08/27 01:59:03;;;;;;;46.85;41.92;;;;;;;21.32;100.00;99855.53;5072980;28;20029;-68
2021/08/27 02:01:29;;;;;;;47.17;42.35;;;;;;;21.42;100.00;99883.38;5072715;28;20066;-66
2021/08/27 02:03:56;;;;;;;48.83;44.00;;;;;;;21.35;100.00;99892.25;5072903;28;20024;-66
2021/08/27 02:06:23;;;;;;;47.85;42.95;;;;;;;21.03;100.00;99859.50;5054922;28;20028;-68
2021/08/27 02:08:51;;;;;;;49.17;44.00;;;;;;;21.24;100.00;99902.91;5072542;28;20078;-65
2021/08/27 02:11:18;;;;;;;50.30;44.97;;;;;;;20.79;100.00;99876.50;5072195;28;20469;-66
2021/08/27 02:13:44;;;;;;;49.03;43.83;;;;;;;21.08;100.00;99898.81;5072741;28;20029;-68
2021/08/27 02:16:10;;;;;;;49.67;44.30;;;;;;;20.97;100.00;99883.22;5072748;28;20363;-66
2021/08/27 02:18:36;;;;;;;48.38;43.20;;;;;;;21.09;100.00;99879.56;5072712;28;20031;-67
2021/08/27 02:21:05;;;;;;;49.55;44.15;;;;;;;21.14;100.00;99872.47;5053704;28;20025;-65
2021/08/27 02:23:33;;;;;;;48.97;43.78;;;;;;;21.05;100.00;99881.34;5072246;28;20036;-68
2021/08/27 02:26:01;;;;;;;52.53;44.40;;;;;;;20.74;100.00;99894.94;5071926;28;20119;-70
2021/08/27 02:28:27;;;;;;;50.15;44.83;;;;;;;20.80;100.00;99899.22;5072357;28;20471;-67
2021/08/27 02:30:54;;;;;;;48.30;43.38;;;;;;;20.78;100.00;99867.75;5072074;28;20119;-69
2021/08/27 02:33:21;;;;;;;49.97;44.60;;;;;;;21.20;100.00;99900.34;5072315;28;20024;-68
2021/08/27 02:35:47;;;;;;;50.03;42.85;;;;;;;21.35;100.00;99902.75;5072094;28;20074;-66
2021/08/27 02:38:19;;;;;;;47.00;42.22;;;;;;;21.39;100.00;99907.06;5071533;28;20020;-72
2021/08/27 02:40:45;;;;;;;46.15;41.45;;;;;;;21.35;100.00;99868.63;5071935;28;20098;-68
2021/08/27 02:43:11;;;;;;;46.00;41.08;;;;;;;21.56;100.00;99890.16;5071972;28;20082;-71
2021/08/27 02:45:36;;;;;;;44.97;40.05;;;;;;;21.63;100.00;99884.78;5071889;28;20025;-67
2021/08/27 02:48:02;;;;;;;45.63;40.70;;;;;;;21.44;99.85;99836.94;5072244;28;20037;-67
2021/08/27 02:50:32;;;;;;;44.38;39.75;;;;;;;21.75;98.60;99881.06;5072238;28;20033;-68
2021/08/27 02:53:17;;;;;;;44.80;40.22;;;;;;;21.86;97.90;99890.50;5071248;28;20043;-66
2021/08/27 02:55:47;;;;;;;46.53;41.55;;;;;;;21.80;97.88;99896.75;5071823;28;20090;-67
2021/08/27 02:58:17;;;;;;;44.42;40.00;;;;;;;21.81;97.89;99895.84;5072019;28;20481;-67
2021/08/27 03:00:54;;;;;;;43.25;38.80;;;;;;;21.75;97.72;99883.69;5071841;28;20482;-67
2021/08/27 03:03:26;;;;;;;48.08;42.30;;;;;;;21.84;98.26;99872.13;5071528;28;20021;-68
2021/08/27 03:05:57;;;;;;;43.90;39.60;;;;;;;21.87;98.44;99866.84;5071649;28;20040;-69
2021/08/27 03:08:24;;;;;;;43.95;39.60;;;;;;;21.84;97.29;99845.00;5071099;28;20029;-69
2021/08/27 03:11:07;;;;;;;41.70;37.42;;;;;;;22.05;97.18;99870.84;5071576;28;20052;-64
2021/08/27 03:13:41;;;;;;;42.85;38.55;;;;;;;22.07;96.58;99870.81;5052541;28;20375;-63
2021/08/27 03:16:10;;;;;;;43.53;38.92;;;;;;;21.95;96.47;99870.16;5071766;28;20025;-65
2021/08/27 03:18:58;;;;;;;44.40;39.67;;;;;;;22.00;96.48;99867.44;5071480;28;20028;-68
2021/08/27 03:21:43;;;;;;;44.58;40.00;;;;;;;22.05;95.71;99880.50;5053684;28;20036;-64
2021/08/27 03:24:18;;;;;;;48.15;42.90;;;;;;;21.69;97.45;99901.34;5052963;28;20085;-67
2021/08/27 03:26:46;;;;;;;45.80;41.03;;;;;;;21.22;100.00;99882.84;5071654;28;20024;-64
2021/08/27 03:29:15;;;;;;;48.00;42.87;;;;;;;21.31;100.00;99878.31;5071326;28;20375;-68
2021/08/27 03:31:41;;;;;;;48.72;43.67;;;;;;;21.52;99.89;99885.84;5035512;28;20437;-65
2021/08/27 03:34:07;;;;;;;46.90;42.03;;;;;;;21.57;99.38;99881.41;5022966;28;20042;-67
2021/08/27 03:36:33;;;;;;;46.08;41.10;;;;;;;21.62;98.54;99885.69;5009400;28;20053;-72
2021/08/27 03:39:03;;;;;;;52.42;44.13;;;;;;;21.66;98.32;99891.75;5009192;28;20034;-66
2021/08/27 03:41:31;;;;;;;54.70;44.15;;;;;;;21.69;97.72;99898.72;5009219;28;20076;-67
2021/08/27 03:43:57;;;;;;;51.95;43.42;;;;;;;21.47;97.41;99849.13;5009054;28;20030;-67
2021/08/27 03:46:24;;;;;;;54.50;46.13;;;;;;;21.70;97.84;99898.69;5009338;28;20112;-67
2021/08/27 03:48:51;;;;;;;64.78;51.25;;;;;;;21.73;98.22;99903.88;5009389;28;20045;-67
2021/08/27 03:51:18;;;;;;;72.38;52.00;;;;;;;21.60;98.32;99886.59;5009308;28;20046;-67
2021/08/27 03:53:45;;;;;;;77.15;55.47;;;;;;;21.60;98.96;99897.13;5009178;28;20439;-67
2021/08/27 03:56:12;;;;;;;74.97;53.05;;;;;;;21.71;98.92;99916.19;5009093;28;20037;-67
2021/08/27 03:58:40;;;;;;;78.22;54.45;;;;;;;21.59;99.08;99911.13;5009275;28;20404;-67
2021/08/27 04:01:06;;;;;;;67.63;52.00;;;;;;;21.46;100.00;99918.34;5009021;28;20196;-67
2021/08/27 04:03:32;;;;;;;73.45;53.17;;;;;;;21.24;100.00;99889.78;5044859;28;20120;-67
2021/08/27 04:05:58;;;;;;;67.68;50.90;;;;;;;21.19;100.00;99927.53;5015990;28;20392;-67
2021/08/27 04:08:24;;;;;;;73.32;52.58;;;;;;;20.97;100.00;99918.22;5051064;28;20025;-67
2021/08/27 04:10:50;;;;;;;65.57;51.33;;;;;;;21.01;100.00;99919.03;5033247;28;20044;-66
2021/08/27 04:13:15;;;;;;;75.53;52.00;;;;;;;21.00;100.00;99914.69;5051328;28;20029;-67
2021/08/27 04:15:40;;;;;;;72.45;51.30;;;;;;;21.04;100.00;99916.34;5051021;28;20029;-66
2021/08/27 04:18:06;;;;;;;71.28;52.13;;;;;;;21.23;100.00;99918.69;5050820;28;20037;-67
2021/08/27 04:20:31;;;;;;;76.90;52.30;;;;;;;21.26;100.00;99903.78;5050916;28;20479;-67
2021/08/27 04:22:57;;;;;;;75.15;52.45;;;;;;;21.39;100.00;99922.81;5050732;28;20110;-67
2021/08/27 04:25:22;;;;;;;68.40;51.88;;;;;;;21.28;100.00;99893.25;5052496;28;20445;-68
2021/08/27 04:27:48;;;;;;;76.40;51.42;;;;;;;21.50;99.89;99936.63;5055101;28;20104;-67
2021/08/27 04:30:13;;;;;;;72.80;49.38;;;;;;;21.53;99.83;99933.06;5054992;28;20479;-67
2021/08/27 04:32:39;;;;;;;72.75;50.15;;;;;;;21.46;99.95;99926.22;5054729;28;20514;-68
2021/08/27 04:35:04;;;;;;;71.78;49.08;;;;;;;21.44;100.00;99938.50;5054674;28;20501;-68
2021/08/27 04:37:31;;;;;;;70.07;48.58;;;;;;;21.37;100.00;99937.75;5054991;28;20514;-67
2021/08/27 04:39:56;;;;;;;64.30;46.10;;;;;;;21.44;100.00;99938.50;5055015;28;20083;-71
2021/08/27 04:42:22;;;;;;;66.93;47.53;;;;;;;21.33;100.00;99909.78;5054617;28;20020;-67
2021/08/27 04:44:47;;;;;;;69.97;47.60;;;;;;;21.57;99.34;99933.94;5054804;28;20047;-67
2021/08/27 04:47:13;;;;;;;68.68;48.60;;;;;;;21.69;98.72;99936.34;5054498;28;20573;-67
2021/08/27 04:49:39;;;;;;;77.47;52.00;;;;;;;21.79;98.50;99937.06;5035816;28;20575;-67
2021/08/27 04:52:04;;;;;;;69.32;49.22;;;;;;;21.89;97.92;99932.50;5054917;28;20510;-67
2021/08/27 04:54:30;;;;;;;72.72;51.00;;;;;;;21.72;97.16;99889.00;5054604;28;20058;-68
2021/08/27 04:56:55;;;;;;;68.03;49.53;;;;;;;21.68;97.55;99918.00;5054545;28;20418;-67
2021/08/27 04:59:21;;;;;;;74.72;51.05;;;;;;;21.49;99.09;99906.00;5054127;28;20045;-67
2021/08/27 05:01:46;;;;;;;65.82;51.55;;;;;;;21.64;98.67;99914.53;5054098;28;20032;-67
2021/08/27 05:04:12;;;;;;;66.80;50.83;;;;;;;21.59;97.43;99877.00;5054052;28;20632;-67
2021/08/27 05:06:37;;;;;;;61.80;48.90;;;;;;;21.86;96.70;99901.88;5054347;28;20029;-67
2021/08/27 05:09:02;;;;;;;63.45;49.58;;;;;;;21.80;96.39;99887.09;5054364;28;20024;-67
2021/08/27 05:11:28;;;;;;;71.22;51.85;;;;;;;22.07;96.16;99921.66;5054208;28;20052;-67
2021/08/27 05:13:53;;;;;;;75.55;51.80;;;;;;;22.06;96.04;99926.94;5054067;28;20056;-69
2021/08/27 05:16:19;;;;;;;77.68;53.08;;;;;;;22.08;96.44;99920.75;5054061;28;20593;-67
2021/08/27 05:18:44;;;;;;;68.70;53.72;;;;;;;22.09;96.25;99909.34;5054033;28;20474;-67
2021/08/27 05:21:14;;;;;;;81.75;59.33;;;;;;;22.04;96.24;99915.56;5053860;28;20029;-67
2021/08/27 05:23:40;;;;;;;71.80;55.35;;;;;;;21.92;96.56;99922.81;5054141;28;20036;-67
2021/08/27 05:26:05;;;;;;;85.68;56.70;;;;;;;21.85;97.64;99928.22;5054046;28;20029;-67
2021/08/27 05:28:30;;;;;;;74.55;57.47;;;;;;;21.82;96.96;99923.88;5053936;28;20025;-67
2021/08/27 05:30:56;;;;;;;76.32;55.80;;;;;;;21.87;96.86;99919.41;5053870;28;20029;-67
2021/08/27 05:33:21;;;;;;;77.03;56.22;;;;;;;21.76;96.62;99889.81;5053649;28;20095;-66
2021/08/27 05:35:47;;;;;;;73.22;56.17;;;;;;;21.96;97.65;99920.97;5053631;28;20033;-67
2021/08/27 05:38:12;;;;;;;77.03;53.45;;;;;;;22.00;97.29;99913.91;5053114;28;20032;-67
2021/08/27 05:40:38;;;;;;;68.93;50.40;;;;;;;21.90;96.69;99910.59;5053777;28;20087;-67
2021/08/27 05:43:03;;;;;;;77.40;57.67;;;;;;;21.86;97.48;99906.25;5053512;28;20372;-67
2021/08/27 05:45:29;;;;;;;73.18;54.85;;;;;;;21.86;97.32;99907.16;5053715;28;20108;-66
2021/08/27 05:47:54;;;;;;;75.75;57.22;;;;;;;21.86;96.40;99922.03;5053358;28;20107;-67
2021/08/27 05:50:20;;;;;;;100.15;83.20;;;;;;;21.81;97.17;99927.38;5053341;28;20090;-67
2021/08/27 05:52:46;;;;;;;331.60;283.23;;;;;;;21.70;97.04;99932.81;5053134;28;20029;-67
2021/08/27 05:55:12;;;;;;;104.28;85.90;;;;;;;21.63;98.92;99928.56;5053444;28;20033;-66
2021/08/27 05:57:38;;;;;;;112.70;94.28;;;;;;;21.64;97.80;99917.16;5001675;28;20064;-67
2021/08/27 06:00:06;;;;;;;91.45;71.18;;;;;;;21.52;96.48;99880.59;5053664;28;20092;-67
2021/08/27 06:02:31;;;;;;;85.75;68.18;;;;;;;21.80;95.62;99917.78;5053007;28;20032;-67
2021/08/27 06:04:59;;;;;;;153.02;136.65;;;;;;;21.98;96.09;99933.19;5053222;28;20025;-67
2021/08/27 06:07:25;;;;;;;199.70;166.05;;;;;;;21.98;96.60;99934.94;5053255;28;20032;-67
2021/08/27 06:09:51;;;;;;;78.72;59.45;;;;;;;21.80;95.59;99944.91;5053255;28;20406;-67
2021/08/27 06:12:17;;;;;;;81.75;64.93;;;;;;;21.81;95.71;99935.28;5053071;28;20025;-66
2021/08/27 06:14:43;;;;;;;111.00;85.10;;;;;;;21.81;98.29;99944.00;5052900;28;20220;-67
2021/08/27 06:17:08;;;;;;;84.75;66.05;;;;;;;21.66;97.86;99941.66;5052782;28;20029;-66
2021/08/27 06:19:34;;;;;;;117.57;94.55;;;;;;;21.51;98.54;99945.38;5053155;28;20027;-66
2021/08/27 06:21:59;;;;;;;76.05;59.88;;;;;;;21.41;97.46;99959.53;5053063;28;20120;-67
2021/08/27 06:24:25;;;;;;;83.78;66.13;;;;;;;21.40;99.57;99958.69;5052873;28;20017;-66
2021/08/27 06:26:51;;;;;;;87.35;67.30;;;;;;;21.28;99.68;99966.75;5052758;28;20071;-67
2021/08/27 06:29:17;;;;;;;100.18;71.22;;;;;;;21.44;99.37;99973.50;5052624;28;20491;-67
2021/08/27 06:31:42;;;;;;;82.03;61.95;;;;;;;21.12;98.31;99966.09;5052781;28;20399;-66
2021/08/27 06:34:08;;;;;;;130.20;93.63;;;;;;;21.25;99.60;99967.66;5052595;28;20028;-66
2021/08/27 06:36:33;;;;;;;256.35;179.95;;;;;;;21.41;98.16;99973.56;5052399;28;20029;-66
2021/08/27 06:38:59;;;;;;;87.93;69.38;;;;;;;21.49;98.00;99981.31;5052539;28;20021;-66
2021/08/27 06:41:24;;;;;;;108.18;86.43;;;;;;;21.61;96.54;99989.03;5052667;28;20040;-66
2021/08/27 06:43:50;;;;;;;57.38;50.47;;;;;;;21.26;97.06;99984.28;5052263;28;20029;-66
2021/08/27 06:46:22;;;;;;;60.72;51.25;;;;;;;21.28;99.26;99995.63;5052221;28;20081;-66
2021/08/27 06:48:48;;;;;;;61.60;52.92;;;;;;;21.19;100.00;99951.16;5051451;28;20029;-66
2021/08/27 06:51:16;;;;;;;138.00;95.00;;;;;;;21.34;100.00;99964.03;5052337;28;20032;-66
2021/08/27 06:53:42;;;;;;;75.38;64.35;;;;;;;21.63;98.91;100000.38;5052273;28;20021;-66
2021/08/27 06:56:07;;;;;;;119.60;104.78;;;;;;;21.72;96.76;99999.34;5051018;28;20033;-66
2021/08/27 06:58:33;;;;;;;69.72;55.28;;;;;;;21.63;97.13;99999.50;5052082;28;20067;-69
2021/08/27 07:01:00;;;;;;;60.35;51.28;;;;;;;21.54;97.90;100005.72;5052020;28;20131;-66
2021/08/27 07:03:25;;;;;;;56.20;49.85;;;;;;;21.25;98.72;99986.03;5052200;28;20482;-66
2021/08/27 07:05:51;;;;;;;65.13;55.65;;;;;;;21.31;100.00;100001.69;5052047;28;20032;-68
2021/08/27 07:08:16;;;;;;;58.25;51.30;;;;;;;21.44;100.00;99986.63;5051864;28;20025;-66
2021/08/27 07:10:42;;;;;;;107.03;85.45;;;;;;;21.63;98.44;99965.34;5051897;28;20033;-66
2021/08/27 07:13:09;;;;;;;61.92;51.08;;;;;;;21.63;97.32;99962.72;5051576;28;20036;-66
2021/08/27 07:15:34;;;;;;;65.07;53.08;;;;;;;21.94;96.97;99998.97;5052008;28;20056;-66
2021/08/27 07:18:00;;;;;;;58.15;51.30;;;;;;;22.10;96.10;100000.44;5051701;28;20479;-66
2021/08/27 07:20:28;;;;;;;60.78;53.72;;;;;;;22.10;97.54;99997.81;5051873;28;20049;-66
2021/08/27 07:22:55;;;;;;;130.93;101.00;;;;;;;22.28;97.11;100004.50;5051632;28;20376;-66
2021/08/27 07:25:20;;;;;;;57.65;50.88;;;;;;;22.23;93.66;99966.03;5051771;28;20449;-66
2021/08/27 07:27:48;;;;;;;52.97;47.25;;;;;;;22.41;92.94;100006.94;5052110;28;20025;-66
2021/08/27 07:30:14;;;;;;;54.13;47.67;;;;;;;22.35;92.38;100015.75;5048305;28;20041;-66
2021/08/27 07:32:39;;;;;;;58.25;51.80;;;;;;;22.50;93.55;100005.88;5071283;28;20402;-66
2021/08/27 07:35:06;;;;;;;67.28;54.53;;;;;;;22.57;93.43;100002.25;5053508;28;20391;-66
2021/08/27 07:37:31;;;;;;;56.13;49.97;;;;;;;22.61;92.46;100006.53;5071657;28;20028;-66
2021/08/27 07:39:58;;;;;;;58.17;49.22;;;;;;;22.52;93.85;100001.44;5071437;28;20031;-66
2021/08/27 07:42:23;;;;;;;88.15;68.82;;;;;;;22.58;95.23;99994.31;5071045;28;20093;-65
2021/08/27 07:44:49;;;;;;;56.92;49.78;;;;;;;22.65;93.52;100002.06;5071587;28;20471;-66
2021/08/27 07:47:14;;;;;;;50.00;44.70;;;;;;;22.55;91.94;99990.88;5071433;28;20028;-66
2021/08/27 07:49:40;;;;;;;49.05;44.05;;;;;;;22.63;90.11;99978.44;5071576;28;20078;-66
2021/08/27 07:52:05;;;;;;;50.03;44.65;;;;;;;22.83;88.89;99974.50;5071324;28;20020;-65
2021/08/27 07:54:31;;;;;;;54.17;48.17;;;;;;;22.94;89.48;99970.75;5064001;28;20032;-66
2021/08/27 07:56:57;;;;;;;50.67;45.28;;;;;;;22.78;89.20;99990.41;5071140;28;20029;-66
2021/08/27 07:59:22;;;;;;;52.55;46.97;;;;;;;22.49;91.46;99965.53;5071285;28;20141;-66
2021/08/27 08:01:48;;;;;;;51.38;46.03;;;;;;;22.97;89.35;99998.75;5071072;28;20375;-66
2021/08/27 08:04:14;;;;;;;50.00;44.45;;;;;;;23.02;87.18;99975.81;5071069;28;20025;-66
2021/08/27 08:06:40;;;;;;;52.90;47.17;;;;;;;23.06;89.17;99974.84;5071143;28;20025;-66
2021/08/27 08:09:06;;;;;;;47.45;42.47;;;;;;;23.33;87.08;100001.50;5070859;28;20673;-66
2021/08/27 08:11:33;;;;;;;52.42;46.83;;;;;;;23.39;87.58;99975.00;5070814;28;20020;-66
2021/08/27 08:13:58;;;;;;;48.20;43.10;;;;;;;23.73;86.19;100003.16;5070909;28;20025;-66
2021/08/27 08:16:24;;;;;;;45.38;40.75;;;;;;;23.75;83.90;99982.03;5071176;28;20021;-66
2021/08/27 08:18:50;;;;;;;44.60;40.00;;;;;;;24.01;82.95;100006.91;5070864;28;20027;-65
2021/08/27 08:21:17;;;;;;;44.58;39.95;;;;;;;24.03;83.13;100008.59;5071210;28;20027;-67
2021/08/27 08:23:43;;;;;;;57.63;49.40;;;;;;;23.94;85.93;100010.59;5070747;28;20518;-66
2021/08/27 08:26:09;;;;;;;47.22;42.47;;;;;;;23.43;84.80;99996.88;5070909;28;20033;-65
2021/08/27 08:28:34;;;;;;;48.97;44.03;;;;;;;23.52;85.20;100006.34;5067190;28;20032;-66
2021/08/27 08:31:00;;;;;;;45.53;40.83;;;;;;;23.68;83.19;100001.56;5070792;28;20107;-65
2021/08/27 08:33:25;;;;;;;44.80;40.13;;;;;;;23.69;82.87;99998.00;5065539;28;20024;-63
2021/08/27 08:35:51;;;;;;;45.90;41.30;;;;;;;23.90;85.03;99999.22;5065204;28;20029;-63
2021/08/27 08:38:18;;;;;;;47.55;42.85;;;;;;;23.75;85.79;99993.47;5053255;28;20045;-66
2021/08/27 08:40:44;;;;;;;49.15;44.15;;;;;;;23.88;84.46;99964.16;5037111;28;20021;-66
2021/08/27 08:43:12;;;;;;;47.80;42.83;;;;;;;24.32;83.13;99996.38;5052615;28;20035;-67
2021/08/27 08:45:49;;;;;;;46.63;41.85;;;;;;;24.49;82.82;99984.50;5055750;28;20037;-67
2021/08/27 08:48:20;;;;;;;48.60;43.55;;;;;;;24.65;83.96;99980.53;5052204;28;20044;-64
2021/08/27 08:50:45;;;;;;;42.53;38.00;;;;;;;24.75;79.93;99974.97;5052469;28;20493;-64
2021/08/27 08:53:12;;;;;;;43.05;38.75;;;;;;;24.81;78.88;99965.13;5050402;28;20025;-67
2021/08/27 08:55:39;;;;;;;42.30;38.10;;;;;;;25.03;80.44;99973.25;5050567;28;20024;-64
2021/08/27 08:58:04;;;;;;;40.55;36.63;;;;;;;25.10;77.58;99965.16;5050847;28;20031;-68
2021/08/27 09:00:30;;;;;;;42.55;38.45;;;;;;;25.18;77.13;99971.03;5052129;28;20433;-65
2021/08/27 09:02:55;;;;;;;40.75;36.80;;;;;;;25.17;76.66;99956.97;5054405;28;20029;-67
2021/08/27 09:05:21;;;;;;;39.00;35.10;;;;;;;25.34;75.33;99969.63;5051142;28;20017;-64
2021/08/27 09:07:46;;;;;;;39.17;35.38;;;;;;;25.50;74.87;99975.31;5052733;28;20112;-64
2021/08/27 09:10:21;;;;;;;35.58;31.83;;;;;;;25.40;73.38;99973.03;5031900;28;20487;-65
2021/08/27 09:12:48;;;;;;;40.05;35.92;;;;;;;25.40;75.54;99968.59;5053310;28;20112;-62
2021/08/27 09:15:15;;;;;;;39.47;35.67;;;;;;;25.09;78.43;99971.34;5054126;28;20028;-64
2021/08/27 09:17:48;;;;;;;39.03;35.13;;;;;;;24.81;77.09;99965.13;5055381;28;20048;-65
2021/08/27 09:20:19;;;;;;;37.80;34.13;;;;;;;24.62;77.33;99956.84;5054356;28;20098;-69
2021/08/27 09:22:49;;;;;;;40.85;36.67;;;;;;;24.61;79.41;99936.66;5054131;28;20475;-66
2021/08/27 09:25:17;;;;;;;38.50;34.67;;;;;;;24.73;76.38;99924.88;5055433;28;20025;-66
2021/08/27 09:28:18;;;;;;;41.95;37.90;;;;;;;25.02;76.74;99942.47;5065548;28;20082;-68
2021/08/27 09:30:58;;;;;;;62.03;47.80;;;;;;;25.19;77.68;99943.72;4985344;28;20167;-67
2021/08/27 09:33:28;;;;;;;39.88;35.80;;;;;;;25.21;74.55;99931.31;4981367;28;20173;-70
2021/08/27 09:35:54;;;;;;;39.13;35.33;;;;;;;25.37;75.63;99936.97;4985493;28;20031;-74
2021/08/27 09:38:24;;;;;;;50.15;40.38;;;;;;;25.65;74.24;99930.78;4988312;28;20034;-73
2021/08/27 09:41:02;;;;;;;38.97;35.22;;;;;;;25.53;73.40;99921.47;4990774;28;20092;-69
2021/08/27 09:43:28;;;;;;;38.30;34.50;;;;;;;25.57;72.45;99936.34;4990126;28;20038;-70
2021/08/27 09:45:54;;;;;;;39.25;34.72;;;;;;;25.79;72.94;99931.16;4990552;28;20183;-68
2021/08/27 09:48:19;;;;;;;34.72;31.42;;;;;;;25.90;71.84;99904.34;4990031;28;20123;-67
2021/08/27 09:50:49;;;;;;;35.83;32.13;;;;;;;26.22;70.59;99926.16;4989348;28;20088;-69
2021/08/27 09:53:17;;;;;;;38.33;33.95;;;;;;;26.34;68.57;99931.91;4989123;28;20045;-70
2021/08/27 09:56:00;;;;;;;34.90;31.38;;;;;;;26.40;67.97;99931.69;4990423;28;20056;-69
2021/08/27 09:58:26;;;;;;;36.78;33.33;;;;;;;26.32;70.04;99926.69;4984905;28;20038;-67
2021/08/27 10:01:07;;;;;;;31.85;28.83;;;;;;;26.44;67.22;99896.22;4986975;28;20487;-69
2021/08/27 10:03:34;;;;;;;31.60;28.58;;;;;;;26.38;67.42;99936.16;4990771;28;20066;-69
2021/08/27 10:06:03;;;;;;;30.85;27.85;;;;;;;26.41;66.20;99936.06;5034285;28;20044;-66
2021/08/27 10:08:32;;;;;;;24.77;22.35;;;;;;;26.50;64.28;99919.81;5043515;28;20473;-68
2021/08/27 10:11:21;;;;;;;31.25;28.08;;;;;;;26.57;67.38;99908.09;5052428;28;20033;-69
2021/08/27 10:13:47;;;;;;;;;;;;;;;26.69;67.89;99909.38;5040299;28;20030;-69
2021/08/27 10:16:13;;;;;;;27.50;24.65;;;;;;;26.95;66.11;99900.47;5053711;28;20440;-68
2021/08/27 10:18:39;;;;;;;28.52;25.83;;;;;;;27.06;65.10;99891.22;5038344;28;20487;-69
2021/08/27 10:21:06;;;;;;;28.00;25.27;;;;;;;26.95;63.46;99897.81;5038991;28;20073;-69
2021/08/27 10:23:32;;;;;;;31.58;28.42;;;;;;;27.26;65.31;99891.22;5033892;28;20145;-67
2021/08/27 10:26:20;;;;;;;34.10;30.58;;;;;;;27.43;66.49;99901.16;5032327;28;20467;-69
2021/08/27 10:28:47;;;;;;;30.63;27.67;;;;;;;27.13;65.61;99897.97;5040600;28;20036;-68
2021/08/27 10:31:13;;;;;;;33.60;30.38;;;;;;;26.95;66.39;99899.56;5040382;28;20032;-69
2021/08/27 10:33:38;;;;;;;31.75;28.75;;;;;;;27.15;65.89;99893.47;5032406;28;20017;-66
2021/08/27 10:36:06;;;;;;;33.35;29.95;;;;;;;27.21;65.29;99890.56;5034783;28;20040;-68
2021/08/27 10:38:47;;;;;;;35.90;32.10;;;;;;;27.20;67.25;99883.53;5033686;28;20022;-68
2021/08/27 10:41:15;;;;;;;33.15;29.58;;;;;;;27.07;66.54;99893.78;5031320;28;20490;-66
2021/08/27 10:43:57;;;;;;;31.67;28.77;;;;;;;26.84;66.24;99877.97;5037295;28;20033;-67
2021/08/27 10:46:24;;;;;;;32.13;29.13;;;;;;;27.03;65.82;99880.72;5034595;28;20026;-69
2021/08/27 10:48:53;;;;;;;31.67;28.67;;;;;;;27.33;63.61;99869.78;5016427;28;20041;-66
2021/08/27 10:51:31;;;;;;;29.80;26.98;;;;;;;27.86;65.06;99866.59;5032862;28;20059;-65
2021/08/27 10:53:56;;;;;;;31.27;28.08;;;;;;;28.17;62.77;99859.94;5033629;28;20099;-69
2021/08/27 10:56:45;;;;;;;30.83;27.63;;;;;;;28.15;61.85;99869.78;5032021;28;20097;-67
2021/08/27 10:59:12;;;;;;;26.48;23.83;;;;;;;28.13;60.66;99865.47;5031193;28;20240;-67
2021/08/27 11:01:40;;;;;;;29.52;26.65;;;;;;;28.40;62.34;99864.19;5033091;28;20028;-66
2021/08/27 11:04:23;;;;;;;31.67;28.52;;;;;;;28.64;62.95;99852.47;5055372;28;20020;-66
2021/08/27 11:06:57;;;;;;;26.17;23.73;;;;;;;28.66;58.57;99824.91;5053237;28;20029;-69
2021/08/27 11:09:31;;;;;;;37.88;27.27;;;;;;;28.98;58.89;99858.81;5052184;28;20036;-67
2021/08/27 11:12:08;;;;;;;32.40;26.88;;;;;;;28.95;57.94;99856.31;5057298;28;20028;-68
2021/08/27 11:14:35;;;;;;;26.73;24.13;;;;;;;29.18;57.52;99865.81;5056265;28;20064;-66
2021/08/27 11:17:03;;;;;;;23.73;21.33;;;;;;;29.35;54.96;99863.19;5060502;28;20024;-66
2021/08/27 11:19:36;;;;;;;22.13;19.95;;;;;;;29.15;54.19;99818.97;5061749;28;20426;-69